首页
METAR-TAF:

METAR-TAF

机场 :

水牛城, 紐約州, 美国

纬度: 42-56-27N, 经度: 078-44-09W, 海拔: 220米

当前天气观测

该预报发布于43分钟前的02:54 UTC
风速9节,风向西转西南
温度 -7°C
湿度 57%
气压 1032 hPa
能見度: 16.1公里
少量云层高于2500英尺

METAR: KBUF 120254Z 25009KT 10SM FEW025 M07/M14 A3048 RMK AO2 SLP336 T10721144 $

时间: 22:37 (03:37 UTC)

预报

该预报发布于31分钟前的03:06 UTC
预报有效从12日的 03点(UTC)到 12日的 24点(UTC)
风速9节,风向西转西南
能見度: 10公里
少量云层高于2500英尺
从 12日的 0800点(UTC)
风速5节,风向西
能見度: 10公里
天空无云
从 12日的 1400点(UTC)
风速3节,风向多变
能見度: 10公里
散云层高于1500英尺
从 12日的 1600点(UTC)
风速5节,风向
能見度: 10公里
散云层高于2500英尺
多云层高于3500英尺
从 12日的 2000点(UTC)
风速6节,风向
能見度: 10公里
多云层高于12000英尺

TAF: KBUF 120306Z 1203/1224 25009KT P6SM FEW025 FM120800 26005KT P6SM SKC FM121400 VRB03KT P6SM SCT015 FM121600 19005KT P6SM SCT025 BKN035 FM122000 18006KT P6SM BKN120

超过4000个机场的气象观测和天气预报(METAR&TAF报告)。

可查询的气象台以黄色和红色小点在地图上表示。

将鼠标移到小点上方,可查看气象台名称。

然后点击查看天气观测和预报。

如需切换地图:点击带黑十字的绿色按钮放大地图;点击带横线的绿色按钮缩小地图;或者点击绿色箭头查看邻近地区的地图。


METAR-TAF: